createdAt,value
2023-01-29T00:00:28.489Z,8.70
2023-01-29T00:02:58.495Z,12.37
2023-01-29T00:05:28.843Z,13.27
2023-01-29T00:07:59.541Z,11.03
2023-01-29T00:10:29.796Z,10.57
2023-01-29T00:12:59.788Z,9.90
2023-01-29T00:16:00.157Z,10.30
2023-01-29T00:18:31.379Z,9.93
2023-01-29T00:21:04.429Z,8.40
2023-01-29T00:23:34.488Z,12.17
2023-01-29T00:26:19.362Z,9.57
2023-01-29T00:28:51.595Z,10.20
2023-01-29T00:31:27.022Z,9.47
2023-01-29T00:33:57.357Z,9.37
2023-01-29T00:36:28.927Z,12.73
2023-01-29T00:39:03.576Z,12.40
2023-01-29T00:41:47.796Z,16.17
2023-01-29T00:44:31.334Z,13.53
2023-01-29T00:47:04.132Z,15.93
2023-01-29T00:49:34.253Z,12.33
2023-01-29T00:52:16.618Z,12.03
2023-01-29T00:54:46.629Z,12.67
2023-01-29T00:57:16.613Z,13.10
2023-01-29T00:59:46.630Z,14.33
2023-01-29T01:02:31.934Z,12.53
2023-01-29T01:05:02.473Z,13.70
2023-01-29T01:07:33.699Z,14.77
2023-01-29T01:10:16.266Z,14.13
2023-01-29T01:12:46.765Z,13.97
2023-01-29T01:15:16.933Z,14.97
2023-01-29T01:17:49.743Z,19.90
2023-01-29T01:20:20.134Z,17.20
2023-01-29T01:22:50.302Z,14.80
2023-01-29T01:25:20.444Z,17.47
2023-01-29T01:27:50.595Z,13.77
2023-01-29T01:30:20.819Z,20.40
2023-01-29T01:32:53.909Z,20.73
2023-01-29T01:35:24.041Z,18.63
2023-01-29T01:37:54.158Z,17.67
2023-01-29T01:40:25.625Z,15.57
2023-01-29T01:42:57.751Z,19.23
2023-01-29T01:45:30.492Z,18.10
2023-01-29T01:48:08.850Z,18.13
2023-01-29T01:50:42.921Z,17.37
2023-01-29T01:53:17.413Z,17.87
2023-01-29T01:55:53.479Z,18.60
2023-01-29T01:58:28.891Z,24.07
2023-01-29T02:00:59.626Z,16.73
2023-01-29T02:03:48.722Z,26.40
2023-01-29T02:06:31.151Z,20.30
2023-01-29T02:09:18.352Z,20.93
2023-01-29T02:11:48.472Z,20.47
2023-01-29T02:14:19.074Z,18.53
2023-01-29T02:16:49.244Z,19.87
2023-01-29T02:19:31.617Z,21.13
2023-01-29T02:22:28.323Z,17.93
2023-01-29T02:25:09.893Z,17.27
2023-01-29T02:28:15.746Z,22.63
2023-01-29T02:30:52.903Z,22.83
2023-01-29T02:33:32.483Z,16.67
2023-01-29T02:36:09.993Z,27.30
2023-01-29T02:38:48.322Z,20.17
2023-01-29T02:41:23.539Z,23.43
2023-01-29T02:44:01.888Z,17.73
2023-01-29T02:46:35.877Z,18.73
2023-01-29T02:49:16.046Z,23.53
2023-01-29T02:52:01.721Z,21.50
2023-01-29T02:54:37.731Z,23.70
2023-01-29T02:57:17.259Z,23.87
2023-01-29T02:59:57.016Z,21.80
2023-01-29T03:02:35.552Z,27.07
2023-01-29T03:05:12.838Z,22.57
2023-01-29T03:07:49.319Z,21.53
2023-01-29T03:10:34.339Z,20.77
2023-01-29T03:13:11.054Z,25.97
2023-01-29T03:15:51.274Z,23.77
2023-01-29T03:18:48.777Z,21.97
2023-01-29T03:21:36.181Z,21.20
2023-01-29T03:24:21.432Z,19.80
2023-01-29T03:27:03.990Z,23.23
2023-01-29T03:29:53.826Z,22.37
2023-01-29T03:32:33.083Z,22.30
2023-01-29T03:35:07.949Z,25.13
2023-01-29T03:37:44.512Z,24.33
2023-01-29T03:40:16.424Z,26.27
2023-01-29T03:43:02.857Z,18.23
2023-01-29T03:45:43.190Z,25.57
2023-01-29T03:48:25.440Z,24.47
2023-01-29T03:51:04.634Z,27.03
2023-01-29T03:53:44.374Z,24.97
2023-01-29T03:56:36.620Z,24.17
2023-01-29T03:59:18.052Z,25.80
2023-01-29T04:02:32.408Z,27.57
2023-01-29T04:05:16.833Z,24.10
2023-01-29T04:08:07.957Z,24.03
2023-01-29T04:10:42.221Z,26.17
2023-01-29T04:13:15.173Z,26.47
2023-01-29T04:15:52.156Z,25.60
2023-01-29T04:18:28.391Z,30.73
2023-01-29T04:21:13.409Z,27.13
2023-01-29T04:23:43.647Z,25.03
2023-01-29T04:26:51.912Z,29.83
2023-01-29T04:29:47.770Z,25.57
2023-01-29T04:32:24.049Z,24.43
2023-01-29T04:35:04.079Z,27.30
2023-01-29T04:37:48.508Z,21.50
2023-01-29T04:40:24.148Z,29.73
2023-01-29T04:43:05.367Z,27.07
2023-01-29T04:45:47.907Z,26.10
2023-01-29T04:48:25.797Z,28.27
2023-01-29T04:51:01.605Z,25.00
2023-01-29T04:53:46.048Z,25.57
2023-01-29T04:56:23.847Z,32.40
2023-01-29T04:58:58.547Z,27.27
2023-01-29T05:01:33.205Z,25.93
2023-01-29T05:04:07.507Z,30.97
2023-01-29T05:06:40.279Z,31.57
2023-01-29T05:09:15.422Z,29.43
2023-01-29T05:11:48.383Z,30.83
2023-01-29T05:14:22.334Z,32.07
2023-01-29T05:16:55.148Z,34.13
2023-01-29T05:19:25.246Z,33.37
2023-01-29T05:21:55.583Z,32.87
2023-01-29T05:24:29.908Z,36.07
2023-01-29T05:27:12.293Z,34.83
2023-01-29T05:29:44.500Z,43.87
2023-01-29T05:32:14.477Z,38.13
2023-01-29T05:34:44.541Z,38.77
2023-01-29T05:37:14.579Z,39.60
2023-01-29T05:39:47.079Z,40.47
2023-01-29T05:42:17.353Z,47.30
2023-01-29T05:44:47.313Z,44.93
2023-01-29T05:47:17.377Z,38.90
2023-01-29T05:49:47.391Z,40.40
2023-01-29T05:52:17.369Z,39.47
2023-01-29T05:54:49.951Z,39.60
2023-01-29T05:57:19.873Z,42.40
2023-01-29T05:59:49.811Z,44.20
2023-01-29T06:02:19.765Z,42.00
2023-01-29T06:04:49.761Z,42.30
2023-01-29T06:07:19.914Z,38.60
2023-01-29T06:09:52.432Z,52.23
2023-01-29T06:12:22.404Z,45.73
2023-01-29T06:14:52.321Z,41.80
2023-01-29T06:17:22.218Z,47.80
2023-01-29T06:19:52.142Z,45.30
2023-01-29T06:22:22.076Z,48.43
2023-01-29T06:24:54.650Z,48.83
2023-01-29T06:27:24.679Z,44.73
2023-01-29T06:29:54.662Z,48.50
2023-01-29T06:32:36.132Z,42.50
2023-01-29T06:35:06.713Z,46.13
2023-01-29T06:37:36.674Z,46.70
2023-01-29T06:40:11.713Z,40.27
2023-01-29T06:42:41.650Z,44.53
2023-01-29T06:45:14.775Z,46.27
2023-01-29T06:47:44.801Z,44.97
2023-01-29T06:50:15.779Z,43.80
2023-01-29T06:52:45.890Z,53.57
2023-01-29T06:55:18.577Z,47.97
2023-01-29T06:57:48.527Z,46.97
2023-01-29T07:00:19.397Z,51.27
2023-01-29T07:02:52.066Z,42.73
2023-01-29T07:05:42.761Z,51.23
2023-01-29T07:08:12.685Z,45.77
2023-01-29T07:11:11.715Z,47.27
2023-01-29T07:13:41.720Z,48.03
2023-01-29T07:16:14.408Z,46.73
2023-01-29T07:18:44.418Z,60.23
2023-01-29T07:21:14.432Z,47.90
2023-01-29T07:23:44.419Z,55.83
2023-01-29T07:26:17.038Z,58.40
2023-01-29T07:28:47.017Z,56.73
2023-01-29T07:31:17.972Z,58.90
2023-01-29T07:33:48.217Z,57.27
2023-01-29T07:36:18.420Z,58.40
2023-01-29T07:38:52.335Z,54.00
2023-01-29T07:41:25.154Z,58.83
2023-01-29T07:43:55.233Z,56.80
2023-01-29T07:46:25.216Z,60.63
2023-01-29T07:48:55.299Z,56.60
2023-01-29T07:51:25.259Z,58.40
2023-01-29T07:53:55.289Z,55.23
2023-01-29T07:56:28.108Z,55.30
2023-01-29T07:58:58.829Z,58.40
2023-01-29T08:01:28.884Z,56.80
2023-01-29T08:03:58.895Z,60.10
2023-01-29T08:06:28.807Z,55.70
2023-01-29T08:08:59.811Z,57.50
2023-01-29T08:11:39.058Z,51.67
2023-01-29T08:14:11.718Z,60.80
2023-01-29T08:16:41.722Z,51.87
2023-01-29T08:19:11.744Z,61.50
2023-01-29T08:21:41.791Z,54.27
2023-01-29T08:24:11.772Z,53.50
2023-01-29T08:27:04.584Z,48.33
2023-01-29T08:29:34.585Z,63.87
2023-01-29T08:32:04.764Z,61.17
2023-01-29T08:34:34.959Z,58.03
2023-01-29T08:37:05.076Z,49.87
2023-01-29T08:39:35.175Z,55.40
2023-01-29T08:42:07.825Z,55.40
2023-01-29T08:44:37.881Z,60.23
2023-01-29T08:47:07.994Z,54.23
2023-01-29T08:49:37.937Z,63.57
2023-01-29T08:52:08.232Z,58.70
2023-01-29T08:54:38.249Z,56.37
2023-01-29T08:57:10.923Z,59.13
2023-01-29T08:59:41.186Z,53.33
2023-01-29T09:02:13.866Z,58.10
2023-01-29T09:04:43.824Z,49.93
2023-01-29T09:07:13.808Z,49.67
2023-01-29T09:09:43.824Z,56.83
2023-01-29T09:12:16.473Z,55.10
2023-01-29T09:14:46.599Z,48.90
2023-01-29T09:17:16.664Z,55.07
2023-01-29T09:19:46.657Z,55.40
2023-01-29T09:22:16.640Z,54.80
2023-01-29T09:24:53.924Z,52.57
2023-01-29T09:27:26.700Z,56.90
2023-01-29T09:29:56.701Z,47.20
2023-01-29T09:32:50.079Z,48.93
2023-01-29T09:35:16.880Z,59.10
2023-01-29T09:37:50.465Z,52.43
2023-01-29T09:40:26.547Z,55.43
2023-01-29T09:43:04.705Z,49.43
2023-01-29T09:45:35.448Z,50.43
2023-01-29T09:48:06.776Z,52.27
2023-01-29T09:50:42.567Z,51.40
2023-01-29T09:53:20.782Z,53.60
2023-01-29T09:55:54.256Z,54.73
2023-01-29T09:58:31.883Z,53.73
2023-01-29T10:01:13.897Z,56.37
2023-01-29T10:04:15.332Z,61.30
2023-01-29T10:07:01.496Z,51.87
2023-01-29T10:10:00.091Z,53.90
2023-01-29T10:12:45.796Z,50.67
2023-01-29T10:15:38.152Z,51.03
2023-01-29T10:18:40.902Z,49.63
2023-01-29T10:21:26.815Z,50.60
2023-01-29T10:24:03.766Z,43.80
2023-01-29T10:26:48.791Z,41.30
2023-01-29T10:29:38.926Z,154.57
2023-01-29T10:32:19.496Z,52.87
2023-01-29T10:34:55.397Z,48.80
2023-01-29T10:37:29.430Z,38.43
2023-01-29T10:40:03.475Z,38.87
2023-01-29T10:42:49.833Z,40.57
2023-01-29T10:45:31.702Z,35.63
2023-01-29T10:48:36.438Z,36.87
2023-01-29T10:51:19.205Z,38.57
2023-01-29T10:54:00.580Z,35.67
2023-01-29T10:56:47.762Z,36.53
2023-01-29T10:59:39.612Z,40.03
2023-01-29T11:02:19.709Z,31.10
2023-01-29T11:04:53.634Z,31.73
2023-01-29T11:07:28.403Z,27.33
2023-01-29T11:10:05.473Z,30.57
2023-01-29T11:12:38.320Z,31.93
2023-01-29T11:15:17.462Z,31.00
2023-01-29T11:18:06.284Z,28.70
2023-01-29T11:20:39.158Z,26.27
2023-01-29T11:23:09.225Z,27.50
2023-01-29T11:25:56.018Z,25.30
2023-01-29T11:28:42.193Z,31.83
2023-01-29T11:31:26.142Z,27.13
2023-01-29T11:34:04.355Z,27.63
2023-01-29T11:36:39.746Z,21.03
2023-01-29T11:39:19.275Z,24.17
2023-01-29T11:41:56.429Z,24.23
2023-01-29T11:44:37.411Z,25.50
2023-01-29T11:47:15.538Z,24.77
2023-01-29T11:50:05.463Z,24.27
2023-01-29T11:52:42.216Z,21.70
2023-01-29T11:55:20.707Z,24.27
2023-01-29T11:57:54.371Z,22.80
2023-01-29T12:00:29.864Z,22.80
2023-01-29T12:03:04.850Z,29.50
2023-01-29T12:05:58.170Z,22.97
2023-01-29T12:08:38.135Z,24.17
2023-01-29T12:11:14.507Z,19.93
2023-01-29T12:14:03.137Z,24.23
2023-01-29T12:16:49.701Z,22.53
2023-01-29T12:19:28.374Z,20.27
2023-01-29T12:22:04.472Z,21.23
2023-01-29T12:24:43.764Z,19.47
2023-01-29T12:27:20.143Z,18.63
2023-01-29T12:29:55.383Z,20.80
2023-01-29T12:32:35.893Z,23.47
2023-01-29T12:35:13.377Z,20.97
2023-01-29T12:37:54.796Z,21.63
2023-01-29T12:40:32.532Z,20.80
2023-01-29T12:43:10.124Z,32.17
2023-01-29T12:45:41.869Z,20.63
2023-01-29T12:48:16.862Z,23.17
2023-01-29T12:50:47.827Z,18.60
2023-01-29T12:53:28.415Z,19.60
2023-01-29T12:56:05.373Z,21.10
2023-01-29T12:58:41.209Z,21.00
2023-01-29T13:01:19.164Z,19.43
2023-01-29T13:03:56.127Z,18.83
2023-01-29T13:06:31.596Z,21.50
2023-01-29T13:09:04.561Z,20.77
2023-01-29T13:11:43.937Z,22.30
2023-01-29T13:14:22.384Z,19.77
2023-01-29T13:16:57.380Z,21.50
2023-01-29T13:19:32.463Z,23.50
2023-01-29T13:22:05.608Z,25.97
2023-01-29T13:24:44.354Z,21.17
2023-01-29T13:27:26.670Z,20.37
2023-01-29T13:29:57.963Z,19.10
2023-01-29T13:32:30.966Z,22.20
2023-01-29T13:35:05.449Z,23.50
2023-01-29T13:37:39.194Z,23.30
2023-01-29T13:40:11.566Z,24.27
2023-01-29T13:42:48.578Z,22.20
2023-01-29T13:45:25.588Z,22.97
2023-01-29T13:48:26.959Z,25.43
2023-01-29T13:51:05.925Z,21.40
2023-01-29T13:53:41.339Z,21.83
2023-01-29T13:56:41.607Z,22.63
2023-01-29T13:59:25.779Z,18.03
2023-01-29T14:02:23.582Z,20.00
2023-01-29T14:04:53.788Z,19.83
2023-01-29T14:07:53.183Z,20.93
2023-01-29T14:10:34.089Z,18.07
2023-01-29T14:13:37.023Z,23.43
2023-01-29T14:16:40.340Z,22.03
2023-01-29T14:19:22.098Z,20.67
2023-01-29T14:21:53.418Z,23.20
2023-01-29T14:24:27.732Z,23.60
2023-01-29T14:26:58.872Z,22.40
2023-01-29T14:29:34.964Z,27.67
2023-01-29T14:32:19.994Z,27.57
2023-01-29T14:34:54.796Z,27.83
2023-01-29T14:37:31.816Z,22.93
2023-01-29T14:40:13.493Z,27.43
2023-01-29T14:42:55.579Z,25.67
2023-01-29T14:45:35.964Z,30.37
2023-01-29T14:48:39.255Z,29.13
2023-01-29T14:51:16.680Z,30.57
2023-01-29T14:54:05.571Z,31.87
2023-01-29T14:56:49.396Z,24.83
2023-01-29T14:59:46.207Z,26.80
2023-01-29T15:02:25.243Z,28.10
2023-01-29T15:05:02.793Z,44.13
2023-01-29T15:07:38.209Z,27.60
2023-01-29T15:10:24.618Z,32.90
2023-01-29T15:13:00.106Z,26.83
2023-01-29T15:15:39.206Z,35.50
2023-01-29T15:18:12.199Z,30.00
2023-01-29T15:20:46.535Z,36.10
2023-01-29T15:23:29.401Z,37.80
2023-01-29T15:26:02.103Z,34.30
2023-01-29T15:28:33.707Z,34.67
2023-01-29T15:31:08.026Z,39.37
2023-01-29T15:33:39.442Z,31.33
2023-01-29T15:36:22.596Z,35.10
2023-01-29T15:39:07.065Z,36.33
2023-01-29T15:41:37.058Z,38.20
2023-01-29T15:44:11.886Z,40.77
2023-01-29T15:46:45.139Z,35.03
2023-01-29T15:49:23.588Z,43.13
2023-01-29T15:51:59.795Z,38.33
2023-01-29T15:54:34.073Z,29.00
2023-01-29T15:57:05.442Z,39.00
2023-01-29T15:59:40.750Z,35.77
2023-01-29T16:02:36.063Z,26.67
2023-01-29T16:05:30.302Z,38.23
2023-01-29T16:08:03.838Z,39.73
2023-01-29T16:10:35.348Z,36.67
2023-01-29T16:13:31.674Z,34.73
2023-01-29T16:16:07.307Z,39.43
2023-01-29T16:18:57.839Z,36.33
2023-01-29T16:21:37.129Z,33.40
2023-01-29T16:24:15.986Z,40.63
2023-01-29T16:26:49.657Z,34.10
2023-01-29T16:29:26.267Z,41.17
2023-01-29T16:32:02.642Z,33.23
2023-01-29T16:34:35.559Z,35.33
2023-01-29T16:37:10.274Z,31.97
2023-01-29T16:39:50.597Z,37.73
2023-01-29T16:42:31.151Z,51.63
2023-01-29T16:45:04.156Z,39.17
2023-01-29T16:47:37.684Z,33.17
2023-01-29T16:50:40.682Z,36.67
2023-01-29T16:53:25.652Z,37.50
2023-01-29T16:56:06.278Z,40.00
2023-01-29T16:58:37.461Z,39.23
2023-01-29T17:01:12.948Z,33.73
2023-01-29T17:03:44.535Z,32.17
2023-01-29T17:06:33.193Z,33.57
2023-01-29T17:09:04.645Z,37.53
2023-01-29T17:11:44.298Z,36.97
2023-01-29T17:14:22.101Z,40.50
2023-01-29T17:16:54.291Z,29.63
2023-01-29T17:19:25.434Z,37.33
2023-01-29T17:21:57.172Z,28.50
2023-01-29T17:24:27.171Z,36.53
2023-01-29T17:26:59.887Z,37.77
2023-01-29T17:29:34.529Z,40.13
2023-01-29T17:32:04.633Z,35.93
2023-01-29T17:34:34.616Z,38.27
2023-01-29T17:37:04.551Z,35.53
2023-01-29T17:39:35.149Z,38.93
2023-01-29T17:42:08.256Z,40.37
2023-01-29T17:44:38.293Z,39.87
2023-01-29T17:47:11.890Z,37.50
2023-01-29T17:49:44.190Z,56.50
2023-01-29T17:52:14.253Z,35.47
2023-01-29T17:54:44.293Z,38.30
2023-01-29T17:57:18.220Z,39.10
2023-01-29T17:59:56.366Z,35.70
2023-01-29T18:02:28.747Z,39.30
2023-01-29T18:04:59.808Z,31.93
2023-01-29T18:07:29.980Z,40.57
2023-01-29T18:10:00.154Z,37.87
2023-01-29T18:12:32.988Z,30.47
2023-01-29T18:15:03.040Z,38.57
2023-01-29T18:17:36.227Z,29.60
2023-01-29T18:20:18.854Z,34.23
2023-01-29T18:22:49.484Z,34.60
2023-01-29T18:25:24.815Z,30.77
2023-01-29T18:28:00.698Z,30.60
2023-01-29T18:30:30.805Z,31.53
2023-01-29T18:33:02.002Z,24.40
2023-01-29T18:35:34.795Z,28.30
2023-01-29T18:38:04.916Z,29.00
2023-01-29T18:40:35.589Z,26.53
2023-01-29T18:43:08.338Z,30.17
2023-01-29T18:45:41.805Z,31.57
2023-01-29T18:48:11.941Z,27.43
2023-01-29T18:50:41.934Z,27.73
2023-01-29T18:53:23.320Z,28.03
2023-01-29T18:56:00.944Z,24.90
2023-01-29T18:58:36.758Z,27.87
2023-01-29T19:01:10.055Z,28.23
2023-01-29T19:03:40.582Z,52.87
2023-01-29T19:06:13.279Z,28.70
2023-01-29T19:08:44.110Z,27.60
2023-01-29T19:11:34.319Z,33.43
2023-01-29T19:14:06.920Z,29.33
2023-01-29T19:16:36.932Z,16.83
2023-01-29T19:19:07.123Z,24.63
2023-01-29T19:21:37.660Z,23.10
2023-01-29T19:24:10.138Z,25.47
2023-01-29T19:26:40.445Z,26.17
2023-01-29T19:29:13.348Z,27.13
2023-01-29T19:31:43.419Z,23.37
2023-01-29T19:34:13.698Z,24.83
2023-01-29T19:36:43.706Z,20.90
2023-01-29T19:39:14.863Z,28.00
2023-01-29T19:41:44.981Z,24.10
2023-01-29T19:44:17.850Z,25.13
2023-01-29T19:46:47.959Z,20.07
2023-01-29T19:49:18.406Z,25.53
2023-01-29T19:51:50.604Z,25.90
2023-01-29T19:54:22.077Z,25.77
2023-01-29T19:56:52.022Z,26.50
2023-01-29T19:59:24.990Z,26.07
2023-01-29T20:01:55.173Z,25.40
2023-01-29T20:04:26.798Z,23.60
2023-01-29T20:06:56.739Z,20.80
2023-01-29T20:09:29.422Z,21.90
2023-01-29T20:11:59.390Z,25.90
2023-01-29T20:14:32.020Z,14.77
2023-01-29T20:17:01.941Z,20.80
2023-01-29T20:19:31.885Z,18.27
2023-01-29T20:22:01.896Z,16.50
2023-01-29T20:24:55.177Z,14.83
2023-01-29T20:27:25.144Z,16.03
2023-01-29T20:29:57.667Z,14.13
2023-01-29T20:32:27.908Z,17.60
2023-01-29T20:34:57.858Z,17.50
2023-01-29T20:37:27.897Z,16.57
2023-01-29T20:39:57.868Z,16.77
2023-01-29T20:42:27.930Z,17.67
2023-01-29T20:45:00.806Z,19.60
2023-01-29T20:47:30.791Z,17.00
2023-01-29T20:50:04.522Z,15.63
2023-01-29T20:52:34.509Z,58.53
2023-01-29T20:55:04.720Z,15.53
2023-01-29T20:57:39.647Z,14.97
2023-01-29T21:00:15.168Z,15.20
2023-01-29T21:02:46.210Z,14.70
2023-01-29T21:05:16.686Z,16.07
2023-01-29T21:07:46.611Z,16.20
2023-01-29T21:10:17.139Z,15.67
2023-01-29T21:13:02.616Z,14.63
2023-01-29T21:15:35.267Z,17.30
2023-01-29T21:18:06.061Z,16.27
2023-01-29T21:20:36.070Z,11.90
2023-01-29T21:23:07.325Z,15.17
2023-01-29T21:25:38.647Z,15.07
2023-01-29T21:28:08.933Z,12.10
2023-01-29T21:30:41.707Z,16.70
2023-01-29T21:33:11.970Z,17.97
2023-01-29T21:35:42.051Z,18.07
2023-01-29T21:38:12.116Z,17.43
2023-01-29T21:40:42.183Z,14.87
2023-01-29T21:43:12.320Z,17.67
2023-01-29T21:45:45.538Z,16.13
2023-01-29T21:48:15.614Z,16.13
2023-01-29T21:50:45.676Z,15.43
2023-01-29T21:53:15.682Z,13.63
2023-01-29T21:55:45.790Z,14.43
2023-01-29T21:58:16.563Z,12.73
2023-01-29T22:00:49.801Z,16.87
2023-01-29T22:03:19.825Z,19.57
2023-01-29T22:05:54.866Z,14.80
2023-01-29T22:08:24.920Z,18.30
2023-01-29T22:10:55.048Z,15.93
2023-01-29T22:13:25.303Z,22.47
2023-01-29T22:16:00.371Z,14.47
2023-01-29T22:18:30.751Z,21.27
2023-01-29T22:21:02.748Z,17.03
2023-01-29T22:23:33.473Z,18.20
2023-01-29T22:26:21.426Z,18.73
2023-01-29T22:28:55.022Z,18.80
2023-01-29T22:31:27.887Z,15.93
2023-01-29T22:33:59.651Z,19.33
2023-01-29T22:36:32.692Z,16.10
2023-01-29T22:39:05.549Z,17.60
2023-01-29T22:41:38.018Z,20.30
2023-01-29T22:44:08.248Z,18.33
2023-01-29T22:46:41.348Z,18.33
2023-01-29T22:49:11.676Z,16.77
2023-01-29T22:51:42.180Z,14.30
2023-01-29T22:54:15.588Z,22.90
2023-01-29T22:56:45.621Z,16.10
2023-01-29T22:59:15.868Z,14.90
2023-01-29T23:01:48.669Z,17.70
2023-01-29T23:04:18.725Z,13.57
2023-01-29T23:06:48.912Z,14.73
2023-01-29T23:09:22.102Z,16.07
2023-01-29T23:11:52.160Z,15.63
2023-01-29T23:14:22.481Z,13.43
2023-01-29T23:16:55.045Z,20.43
2023-01-29T23:19:27.118Z,17.33
2023-01-29T23:21:57.057Z,15.57
2023-01-29T23:24:27.047Z,14.87
2023-01-29T23:27:09.424Z,14.07
2023-01-29T23:29:39.811Z,11.47
2023-01-29T23:32:13.555Z,16.73
2023-01-29T23:34:43.543Z,19.70
2023-01-29T23:37:13.781Z,12.63
2023-01-29T23:39:43.942Z,15.70
2023-01-29T23:42:13.912Z,20.40
2023-01-29T23:44:44.240Z,17.90
2023-01-29T23:47:16.752Z,19.17
2023-01-29T23:49:46.944Z,20.60
2023-01-29T23:52:17.037Z,16.23
2023-01-29T23:54:47.121Z,14.37
2023-01-29T23:57:17.190Z,14.57
2023-01-29T23:59:47.240Z,16.93
